sensor_id;sensor_type;location;lat;lon;timestamp;pressure;altitude;pressure_sealevel;temperature;humidity
62031;BME280;62035;52.094;5.112;2023-01-28T00:00:21;103103.75;;;4.82;100.00
62031;BME280;62035;52.094;5.112;2023-01-28T00:02:49;103091.16;;;4.66;100.00
62031;BME280;62035;52.094;5.112;2023-01-28T00:05:17;103105.63;;;4.55;100.00
62031;BME280;62035;52.094;5.112;2023-01-28T00:07:47;103109.03;;;4.82;100.00
62031;BME280;62035;52.094;5.112;2023-01-28T00:10:15;103087.19;;;4.55;100.00
62031;BME280;62035;52.094;5.112;2023-01-28T00:12:43;103115.81;;;4.65;100.00
62031;BME280;62035;52.094;5.112;2023-01-28T00:15:11;103114.63;;;4.74;100.00
62031;BME280;62035;52.094;5.112;2023-01-28T00:17:41;103117.84;;;4.57;100.00
62031;BME280;62035;52.094;5.112;2023-01-28T00:20:09;103119.41;;;4.63;100.00
62031;BME280;62035;52.094;5.112;2023-01-28T00:22:38;103116.38;;;4.97;100.00
62031;BME280;62035;52.094;5.112;2023-01-28T00:25:06;103104.78;;;4.54;100.00
62031;BME280;62035;52.094;5.112;2023-01-28T00:27:34;103104.63;;;4.59;100.00
62031;BME280;62035;52.094;5.112;2023-01-28T00:30:02;103095.56;;;4.66;100.00
62031;BME280;62035;52.094;5.112;2023-01-28T00:32:30;103097.25;;;4.68;100.00
62031;BME280;62035;52.094;5.112;2023-01-28T00:34:59;103105.03;;;4.72;100.00
62031;BME280;62035;52.094;5.112;2023-01-28T00:37:27;103107.47;;;4.78;100.00
62031;BME280;62035;52.094;5.112;2023-01-28T00:39:55;103099.81;;;4.45;100.00
62031;BME280;62035;52.094;5.112;2023-01-28T00:42:22;103104.28;;;4.68;100.00
62031;BME280;62035;52.094;5.112;2023-01-28T00:44:50;103098.16;;;4.67;100.00
62031;BME280;62035;52.094;5.112;2023-01-28T00:47:18;103094.88;;;4.61;100.00
62031;BME280;62035;52.094;5.112;2023-01-28T00:49:46;103103.09;;;4.77;100.00
62031;BME280;62035;52.094;5.112;2023-01-28T00:52:15;103107.91;;;4.89;100.00
62031;BME280;62035;52.094;5.112;2023-01-28T00:54:43;103098.69;;;4.77;100.00
62031;BME280;62035;52.094;5.112;2023-01-28T00:57:11;103100.50;;;4.75;100.00
62031;BME280;62035;52.094;5.112;2023-01-28T00:59:39;103094.38;;;4.75;100.00
62031;BME280;62035;52.094;5.112;2023-01-28T01:02:06;103092.59;;;4.75;100.00
62031;BME280;62035;52.094;5.112;2023-01-28T01:04:38;103065.13;;;4.57;100.00
62031;BME280;62035;52.094;5.112;2023-01-28T01:07:06;103093.63;;;4.46;100.00
62031;BME280;62035;52.094;5.112;2023-01-28T01:09:35;103095.78;;;4.60;100.00
62031;BME280;62035;52.094;5.112;2023-01-28T01:12:03;103101.41;;;4.97;100.00
62031;BME280;62035;52.094;5.112;2023-01-28T01:14:33;103100.56;;;4.97;100.00
62031;BME280;62035;52.094;5.112;2023-01-28T01:17:00;103103.53;;;5.11;100.00
62031;BME280;62035;52.094;5.112;2023-01-28T01:19:28;103098.94;;;4.93;100.00
62031;BME280;62035;52.094;5.112;2023-01-28T01:21:56;103094.66;;;5.14;100.00
62031;BME280;62035;52.094;5.112;2023-01-28T01:24:24;103097.91;;;4.97;100.00
62031;BME280;62035;52.094;5.112;2023-01-28T01:26:56;103102.13;;;5.02;100.00
62031;BME280;62035;52.094;5.112;2023-01-28T01:29:23;103103.84;;;5.03;100.00
62031;BME280;62035;52.094;5.112;2023-01-28T01:31:51;103100.09;;;5.09;100.00
62031;BME280;62035;52.094;5.112;2023-01-28T01:34:20;103105.94;;;5.17;100.00
62031;BME280;62035;52.094;5.112;2023-01-28T01:36:48;103101.81;;;4.87;100.00
62031;BME280;62035;52.094;5.112;2023-01-28T01:39:16;103102.06;;;5.04;100.00
62031;BME280;62035;52.094;5.112;2023-01-28T01:41:44;103102.69;;;5.11;100.00
62031;BME280;62035;52.094;5.112;2023-01-28T01:44:51;103099.75;;;4.95;100.00
62031;BME280;62035;52.094;5.112;2023-01-28T01:47:24;103081.25;;;4.73;100.00
62031;BME280;62035;52.094;5.112;2023-01-28T01:49:57;103109.22;;;4.77;100.00
62031;BME280;62035;52.094;5.112;2023-01-28T01:52:31;103114.91;;;5.13;100.00
62031;BME280;62035;52.094;5.112;2023-01-28T01:55:02;103115.19;;;5.06;100.00
62031;BME280;62035;52.094;5.112;2023-01-28T01:57:33;103117.31;;;4.96;100.00
62031;BME280;62035;52.094;5.112;2023-01-28T02:00:06;103115.31;;;5.02;100.00
62031;BME280;62035;52.094;5.112;2023-01-28T02:02:37;103109.84;;;5.07;100.00
62031;BME280;62035;52.094;5.112;2023-01-28T02:05:09;103107.91;;;5.12;100.00
62031;BME280;62035;52.094;5.112;2023-01-28T02:07:38;103107.66;;;4.95;100.00
62031;BME280;62035;52.094;5.112;2023-01-28T02:10:08;103107.84;;;4.90;100.00
62031;BME280;62035;52.094;5.112;2023-01-28T02:12:40;103112.16;;;5.16;100.00
62031;BME280;62035;52.094;5.112;2023-01-28T02:15:15;103108.16;;;5.28;100.00
62031;BME280;62035;52.094;5.112;2023-01-28T02:17:46;103104.41;;;5.12;100.00
62031;BME280;62035;52.094;5.112;2023-01-28T02:20:18;103112.22;;;5.15;100.00
62031;BME280;62035;52.094;5.112;2023-01-28T02:23:05;103113.25;;;5.32;100.00
62031;BME280;62035;52.094;5.112;2023-01-28T02:26:07;103106.50;;;5.25;100.00
62031;BME280;62035;52.094;5.112;2023-01-28T02:28:54;103118.22;;;5.18;100.00
62031;BME280;62035;52.094;5.112;2023-01-28T02:31:32;103111.19;;;5.19;100.00
62031;BME280;62035;52.094;5.112;2023-01-28T02:34:10;103122.63;;;4.94;100.00
62031;BME280;62035;52.094;5.112;2023-01-28T02:36:48;103135.88;;;4.93;100.00
62031;BME280;62035;52.094;5.112;2023-01-28T02:39:22;103141.97;;;4.95;100.00
62031;BME280;62035;52.094;5.112;2023-01-28T02:42:00;103133.84;;;5.01;100.00
62031;BME280;62035;52.094;5.112;2023-01-28T02:44:33;103123.09;;;4.82;100.00
62031;BME280;62035;52.094;5.112;2023-01-28T02:47:01;103126.09;;;4.73;100.00
62031;BME280;62035;52.094;5.112;2023-01-28T02:49:49;103123.34;;;4.76;100.00
62031;BME280;62035;52.094;5.112;2023-01-28T02:52:34;103130.84;;;4.87;100.00
62031;BME280;62035;52.094;5.112;2023-01-28T02:55:38;103128.06;;;4.66;100.00
62031;BME280;62035;52.094;5.112;2023-01-28T02:58:17;103097.59;;;4.34;100.00
62031;BME280;62035;52.094;5.112;2023-01-28T03:00:55;103116.28;;;4.77;100.00
62031;BME280;62035;52.094;5.112;2023-01-28T03:03:35;103110.75;;;4.59;100.00
62031;BME280;62035;52.094;5.112;2023-01-28T03:06:16;103113.44;;;4.81;100.00
62031;BME280;62035;52.094;5.112;2023-01-28T03:08:50;103109.03;;;4.82;100.00
62031;BME280;62035;52.094;5.112;2023-01-28T03:11:39;103126.13;;;4.72;100.00
62031;BME280;62035;52.094;5.112;2023-01-28T03:14:27;103120.13;;;4.68;100.00
62031;BME280;62035;52.094;5.112;2023-01-28T03:17:23;103112.16;;;4.45;100.00
62031;BME280;62035;52.094;5.112;2023-01-28T03:20:14;103108.19;;;4.33;100.00
62031;BME280;62035;52.094;5.112;2023-01-28T03:23:02;103106.53;;;4.79;100.00
62031;BME280;62035;52.094;5.112;2023-01-28T03:25:58;103108.97;;;4.83;100.00
62031;BME280;62035;52.094;5.112;2023-01-28T03:28:47;103110.53;;;4.65;100.00
62031;BME280;62035;52.094;5.112;2023-01-28T03:31:35;103122.59;;;4.73;100.00
62031;BME280;62035;52.094;5.112;2023-01-28T03:34:23;103124.59;;;4.89;100.00
62031;BME280;62035;52.094;5.112;2023-01-28T03:37:08;103114.09;;;4.64;100.00
62031;BME280;62035;52.094;5.112;2023-01-28T03:39:40;103111.72;;;4.80;100.00
62031;BME280;62035;52.094;5.112;2023-01-28T03:42:09;103101.28;;;4.54;100.00
62031;BME280;62035;52.094;5.112;2023-01-28T03:44:39;103101.25;;;4.30;100.00
62031;BME280;62035;52.094;5.112;2023-01-28T03:47:21;103113.47;;;4.07;100.00
62031;BME280;62035;52.094;5.112;2023-01-28T03:49:53;103109.97;;;4.32;100.00
62031;BME280;62035;52.094;5.112;2023-01-28T03:52:23;103109.81;;;4.37;100.00
62031;BME280;62035;52.094;5.112;2023-01-28T03:54:51;103111.88;;;4.52;100.00
62031;BME280;62035;52.094;5.112;2023-01-28T03:57:21;103118.34;;;4.68;100.00
62031;BME280;62035;52.094;5.112;2023-01-28T03:59:50;103122.16;;;4.60;100.00
62031;BME280;62035;52.094;5.112;2023-01-28T04:02:20;103129.78;;;4.43;100.00
62031;BME280;62035;52.094;5.112;2023-01-28T04:04:49;103092.47;;;4.30;100.00
62031;BME280;62035;52.094;5.112;2023-01-28T04:07:18;103121.78;;;4.46;100.00
62031;BME280;62035;52.094;5.112;2023-01-28T04:09:45;103118.63;;;4.36;100.00
62031;BME280;62035;52.094;5.112;2023-01-28T04:12:13;103128.22;;;4.39;100.00
62031;BME280;62035;52.094;5.112;2023-01-28T04:14:41;103120.75;;;4.50;100.00
62031;BME280;62035;52.094;5.112;2023-01-28T04:17:09;103132.53;;;4.64;100.00
62031;BME280;62035;52.094;5.112;2023-01-28T04:19:37;103128.63;;;4.51;100.00
62031;BME280;62035;52.094;5.112;2023-01-28T04:22:09;103147.13;;;4.50;100.00
62031;BME280;62035;52.094;5.112;2023-01-28T04:24:38;103155.09;;;4.48;100.00
62031;BME280;62035;52.094;5.112;2023-01-28T04:27:06;103160.91;;;4.58;100.00
62031;BME280;62035;52.094;5.112;2023-01-28T04:29:33;103148.47;;;4.61;100.00
62031;BME280;62035;52.094;5.112;2023-01-28T04:32:01;103151.16;;;4.60;100.00
62031;BME280;62035;52.094;5.112;2023-01-28T04:34:29;103153.75;;;4.61;100.00
62031;BME280;62035;52.094;5.112;2023-01-28T04:36:56;103152.09;;;4.82;100.00
62031;BME280;62035;52.094;5.112;2023-01-28T04:39:25;103149.03;;;4.71;100.00
62031;BME280;62035;52.094;5.112;2023-01-28T04:41:53;103156.50;;;4.58;100.00
62031;BME280;62035;52.094;5.112;2023-01-28T04:44:20;103147.34;;;4.68;100.00
62031;BME280;62035;52.094;5.112;2023-01-28T04:46:48;103144.00;;;4.63;100.00
62031;BME280;62035;52.094;5.112;2023-01-28T04:49:15;103147.22;;;4.47;100.00
62031;BME280;62035;52.094;5.112;2023-01-28T04:51:43;103135.34;;;4.35;100.00
62031;BME280;62035;52.094;5.112;2023-01-28T04:54:11;103141.97;;;4.47;100.00
62031;BME280;62035;52.094;5.112;2023-01-28T04:56:40;103141.66;;;4.31;100.00
62031;BME280;62035;52.094;5.112;2023-01-28T04:59:07;103125.28;;;4.46;100.00
62031;BME280;62035;52.094;5.112;2023-01-28T05:01:35;103129.09;;;4.62;100.00
62031;BME280;62035;52.094;5.112;2023-01-28T05:04:03;103138.78;;;4.62;100.00
62031;BME280;62035;52.094;5.112;2023-01-28T05:06:31;103134.44;;;4.61;100.00
62031;BME280;62035;52.094;5.112;2023-01-28T05:08:59;103137.38;;;4.27;100.00
62031;BME280;62035;52.094;5.112;2023-01-28T05:11:27;103133.91;;;4.26;100.00
62031;BME280;62035;52.094;5.112;2023-01-28T05:13:55;103129.75;;;4.44;100.00
62031;BME280;62035;52.094;5.112;2023-01-28T05:16:23;103135.13;;;4.41;100.00
62031;BME280;62035;52.094;5.112;2023-01-28T05:18:51;103131.53;;;4.44;100.00
62031;BME280;62035;52.094;5.112;2023-01-28T05:21:18;103123.19;;;4.31;100.00
62031;BME280;62035;52.094;5.112;2023-01-28T05:23:46;103143.84;;;4.43;100.00
62031;BME280;62035;52.094;5.112;2023-01-28T05:26:14;103132.31;;;4.46;100.00
62031;BME280;62035;52.094;5.112;2023-01-28T05:28:41;103129.53;;;4.50;100.00
62031;BME280;62035;52.094;5.112;2023-01-28T05:31:10;103142.47;;;4.33;100.00
62031;BME280;62035;52.094;5.112;2023-01-28T05:33:38;103138.19;;;4.54;100.00
62031;BME280;62035;52.094;5.112;2023-01-28T05:36:06;103136.63;;;4.48;100.00
62031;BME280;62035;52.094;5.112;2023-01-28T05:38:34;103109.34;;;4.49;100.00
62031;BME280;62035;52.094;5.112;2023-01-28T05:41:01;103140.72;;;4.57;100.00
62031;BME280;62035;52.094;5.112;2023-01-28T05:43:29;103129.63;;;4.47;100.00
62031;BME280;62035;52.094;5.112;2023-01-28T05:45:57;103130.44;;;4.49;100.00
62031;BME280;62035;52.094;5.112;2023-01-28T05:48:25;103127.53;;;4.57;100.00
62031;BME280;62035;52.094;5.112;2023-01-28T05:50:53;103134.09;;;4.45;100.00
62031;BME280;62035;52.094;5.112;2023-01-28T05:53:21;103133.09;;;4.49;100.00
62031;BME280;62035;52.094;5.112;2023-01-28T05:55:49;103113.50;;;4.31;100.00
62031;BME280;62035;52.094;5.112;2023-01-28T05:58:18;103131.97;;;4.31;100.00
62031;BME280;62035;52.094;5.112;2023-01-28T06:00:46;103130.75;;;4.15;100.00
62031;BME280;62035;52.094;5.112;2023-01-28T06:03:14;103138.34;;;4.24;100.00
62031;BME280;62035;52.094;5.112;2023-01-28T06:05:43;103134.00;;;4.23;100.00
62031;BME280;62035;52.094;5.112;2023-01-28T06:08:11;103143.88;;;4.42;100.00
62031;BME280;62035;52.094;5.112;2023-01-28T06:10:38;103142.41;;;4.34;100.00
62031;BME280;62035;52.094;5.112;2023-01-28T06:13:06;103146.16;;;4.27;100.00
62031;BME280;62035;52.094;5.112;2023-01-28T06:15:34;103133.03;;;4.26;100.00
62031;BME280;62035;52.094;5.112;2023-01-28T06:18:01;103146.06;;;4.30;100.00
62031;BME280;62035;52.094;5.112;2023-01-28T06:20:29;103124.56;;;4.16;100.00
62031;BME280;62035;52.094;5.112;2023-01-28T06:22:58;103131.63;;;4.41;100.00
62031;BME280;62035;52.094;5.112;2023-01-28T06:25:26;103136.28;;;4.34;100.00
62031;BME280;62035;52.094;5.112;2023-01-28T06:27:54;103144.09;;;4.11;100.00
62031;BME280;62035;52.094;5.112;2023-01-28T06:30:21;103143.22;;;4.10;100.00
62031;BME280;62035;52.094;5.112;2023-01-28T06:32:53;103156.03;;;4.21;100.00
62031;BME280;62035;52.094;5.112;2023-01-28T06:35:21;103147.88;;;4.28;100.00
62031;BME280;62035;52.094;5.112;2023-01-28T06:37:49;103146.88;;;4.32;100.00
62031;BME280;62035;52.094;5.112;2023-01-28T06:40:19;103140.47;;;4.13;100.00
62031;BME280;62035;52.094;5.112;2023-01-28T06:42:48;103155.69;;;4.31;100.00
62031;BME280;62035;52.094;5.112;2023-01-28T06:45:15;103165.97;;;4.13;100.00
62031;BME280;62035;52.094;5.112;2023-01-28T06:47:43;103165.06;;;4.14;100.00
62031;BME280;62035;52.094;5.112;2023-01-28T06:50:10;103156.75;;;4.26;100.00
62031;BME280;62035;52.094;5.112;2023-01-28T06:52:38;103156.75;;;4.26;100.00
62031;BME280;62035;52.094;5.112;2023-01-28T06:55:07;103159.09;;;4.35;100.00
62031;BME280;62035;52.094;5.112;2023-01-28T06:57:37;103150.88;;;4.18;100.00
62031;BME280;62035;52.094;5.112;2023-01-28T07:00:08;103175.88;;;4.32;100.00
62031;BME280;62035;52.094;5.112;2023-01-28T07:02:38;103174.53;;;4.19;100.00
62031;BME280;62035;52.094;5.112;2023-01-28T07:05:06;103171.59;;;4.28;100.00
62031;BME280;62035;52.094;5.112;2023-01-28T07:07:34;103165.63;;;4.23;100.00
62031;BME280;62035;52.094;5.112;2023-01-28T07:10:03;103167.19;;;4.02;100.00
62031;BME280;62035;52.094;5.112;2023-01-28T07:12:31;103161.56;;;4.40;100.00
62031;BME280;62035;52.094;5.112;2023-01-28T07:15:00;103171.13;;;4.42;100.00
62031;BME280;62035;52.094;5.112;2023-01-28T07:17:28;103176.94;;;4.27;100.00
62031;BME280;62035;52.094;5.112;2023-01-28T07:19:55;103181.59;;;4.44;100.00
62031;BME280;62035;52.094;5.112;2023-01-28T07:22:23;103182.53;;;4.43;100.00
62031;BME280;62035;52.094;5.112;2023-01-28T07:24:50;103182.66;;;4.40;100.00
62031;BME280;62035;52.094;5.112;2023-01-28T07:27:18;103176.81;;;4.30;100.00
62031;BME280;62035;52.094;5.112;2023-01-28T07:29:45;103177.72;;;4.02;100.00
62031;BME280;62035;52.094;5.112;2023-01-28T07:32:14;103181.28;;;4.28;100.00
62031;BME280;62035;52.094;5.112;2023-01-28T07:34:42;103190.47;;;4.41;100.00
62031;BME280;62035;52.094;5.112;2023-01-28T07:37:10;103178.44;;;4.34;100.00
62031;BME280;62035;52.094;5.112;2023-01-28T07:39:37;103192.19;;;4.17;100.00
62031;BME280;62035;52.094;5.112;2023-01-28T07:42:05;103171.56;;;4.30;100.00
62031;BME280;62035;52.094;5.112;2023-01-28T07:44:32;103185.94;;;4.20;100.00
62031;BME280;62035;52.094;5.112;2023-01-28T07:47:00;103192.22;;;4.16;100.00
62031;BME280;62035;52.094;5.112;2023-01-28T07:49:29;103205.56;;;4.38;100.00
62031;BME280;62035;52.094;5.112;2023-01-28T07:51:57;103180.09;;;4.10;100.00
62031;BME280;62035;52.094;5.112;2023-01-28T07:54:25;103189.34;;;4.23;100.00
62031;BME280;62035;52.094;5.112;2023-01-28T07:56:53;103201.47;;;4.29;100.00
62031;BME280;62035;52.094;5.112;2023-01-28T07:59:21;103191.84;;;4.28;100.00
62031;BME280;62035;52.094;5.112;2023-01-28T08:01:49;103177.19;;;4.19;100.00
62031;BME280;62035;52.094;5.112;2023-01-28T08:04:18;103210.19;;;4.31;100.00
62031;BME280;62035;52.094;5.112;2023-01-28T08:06:47;103204.00;;;4.32;100.00
62031;BME280;62035;52.094;5.112;2023-01-28T08:09:17;103204.81;;;4.34;100.00
62031;BME280;62035;52.094;5.112;2023-01-28T08:11:44;103196.63;;;4.42;100.00
62031;BME280;62035;52.094;5.112;2023-01-28T08:14:12;103204.13;;;4.54;100.00
62031;BME280;62035;52.094;5.112;2023-01-28T08:16:40;103217.56;;;4.20;100.00
62031;BME280;62035;52.094;5.112;2023-01-28T08:19:07;103215.03;;;4.43;100.00
62031;BME280;62035;52.094;5.112;2023-01-28T08:21:36;103225.63;;;4.42;100.00
62031;BME280;62035;52.094;5.112;2023-01-28T08:24:05;103216.13;;;4.38;100.00
62031;BME280;62035;52.094;5.112;2023-01-28T08:26:33;103212.72;;;4.59;100.00
62031;BME280;62035;52.094;5.112;2023-01-28T08:29:01;103228.31;;;4.66;100.00
62031;BME280;62035;52.094;5.112;2023-01-28T08:31:29;103229.81;;;4.47;100.00
62031;BME280;62035;52.094;5.112;2023-01-28T08:33:56;103226.63;;;4.39;100.00
62031;BME280;62035;52.094;5.112;2023-01-28T08:36:24;103235.34;;;4.13;100.00
62031;BME280;62035;52.094;5.112;2023-01-28T08:38:52;103225.91;;;4.34;100.00
62031;BME280;62035;52.094;5.112;2023-01-28T08:41:21;103238.94;;;4.39;100.00
62031;BME280;62035;52.094;5.112;2023-01-28T08:43:49;103235.88;;;4.24;100.00
62031;BME280;62035;52.094;5.112;2023-01-28T08:46:17;103232.00;;;4.61;100.00
62031;BME280;62035;52.094;5.112;2023-01-28T08:48:44;103254.50;;;4.96;100.00
62031;BME280;62035;52.094;5.112;2023-01-28T08:51:12;103251.66;;;5.02;100.00
62031;BME280;62035;52.094;5.112;2023-01-28T08:53:40;103252.50;;;4.79;100.00
62031;BME280;62035;52.094;5.112;2023-01-28T08:56:07;103248.31;;;4.97;100.00
62031;BME280;62035;52.094;5.112;2023-01-28T08:58:37;103242.09;;;4.99;100.00
62031;BME280;62035;52.094;5.112;2023-01-28T09:01:05;103232.09;;;4.83;100.00
62031;BME280;62035;52.094;5.112;2023-01-28T09:03:33;103237.03;;;4.68;100.00
62031;BME280;62035;52.094;5.112;2023-01-28T09:06:01;103231.66;;;4.72;100.00
62031;BME280;62035;52.094;5.112;2023-01-28T09:08:29;103242.44;;;4.64;100.00
62031;BME280;62035;52.094;5.112;2023-01-28T09:10:58;103234.69;;;4.59;100.00
62031;BME280;62035;52.094;5.112;2023-01-28T09:13:26;103240.16;;;4.53;100.00
62031;BME280;62035;52.094;5.112;2023-01-28T09:15:56;103241.78;;;4.57;100.00
62031;BME280;62035;52.094;5.112;2023-01-28T09:18:24;103245.56;;;4.24;100.00
62031;BME280;62035;52.094;5.112;2023-01-28T09:20:51;103253.69;;;4.16;100.00
62031;BME280;62035;52.094;5.112;2023-01-28T09:23:19;103254.38;;;4.23;100.00
62031;BME280;62035;52.094;5.112;2023-01-28T09:25:47;103238.38;;;4.01;100.00
62031;BME280;62035;52.094;5.112;2023-01-28T09:28:14;103268.84;;;4.10;100.00
62031;BME280;62035;52.094;5.112;2023-01-28T09:30:42;103268.66;;;4.16;100.00
62031;BME280;62035;52.094;5.112;2023-01-28T09:33:11;103276.47;;;4.19;100.00
62031;BME280;62035;52.094;5.112;2023-01-28T09:35:38;103272.09;;;3.90;100.00
62031;BME280;62035;52.094;5.112;2023-01-28T09:38:06;103263.72;;;4.33;100.00
62031;BME280;62035;52.094;5.112;2023-01-28T09:40:35;103270.28;;;4.46;100.00
62031;BME280;62035;52.094;5.112;2023-01-28T09:46:11;103265.94;;;4.72;100.00
62031;BME280;62035;52.094;5.112;2023-01-28T09:48:44;103266.75;;;4.47;100.00
62031;BME280;62035;52.094;5.112;2023-01-28T09:51:26;103260.66;;;4.72;100.00
62031;BME280;62035;52.094;5.112;2023-01-28T09:54:03;103259.59;;;4.51;100.00
62031;BME280;62035;52.094;5.112;2023-01-28T09:56:41;103256.34;;;4.43;100.00
62031;BME280;62035;52.094;5.112;2023-01-28T09:59:17;103275.03;;;4.37;100.00
62031;BME280;62035;52.094;5.112;2023-01-28T10:01:52;103292.72;;;4.33;100.00
62031;BME280;62035;52.094;5.112;2023-01-28T10:04:37;103280.34;;;4.35;100.00
62031;BME280;62035;52.094;5.112;2023-01-28T10:07:19;103284.41;;;4.72;100.00
62031;BME280;62035;52.094;5.112;2023-01-28T10:10:02;103286.63;;;4.57;100.00
62031;BME280;62035;52.094;5.112;2023-01-28T10:12:46;103290.16;;;4.56;100.00
62031;BME280;62035;52.094;5.112;2023-01-28T10:15:34;103294.34;;;4.37;100.00
62031;BME280;62035;52.094;5.112;2023-01-28T10:18:32;103287.13;;;4.42;100.00
62031;BME280;62035;52.094;5.112;2023-01-28T10:21:11;103279.22;;;4.68;100.00
62031;BME280;62035;52.094;5.112;2023-01-28T10:23:51;103270.81;;;4.82;100.00
62031;BME280;62035;52.094;5.112;2023-01-28T10:26:29;103277.28;;;4.74;100.00
62031;BME280;62035;52.094;5.112;2023-01-28T10:29:05;103276.47;;;4.72;100.00
62031;BME280;62035;52.094;5.112;2023-01-28T10:31:46;103259.53;;;4.79;100.00
62031;BME280;62035;52.094;5.112;2023-01-28T10:34:19;103273.44;;;5.09;100.00
62031;BME280;62035;52.094;5.112;2023-01-28T10:36:50;103265.63;;;5.06;100.00
62031;BME280;62035;52.094;5.112;2023-01-28T10:39:20;103266.91;;;4.94;100.00
62031;BME280;62035;52.094;5.112;2023-01-28T10:41:51;103242.19;;;4.96;100.00
62031;BME280;62035;52.094;5.112;2023-01-28T10:44:27;103263.63;;;5.12;100.00
62031;BME280;62035;52.094;5.112;2023-01-28T10:47:02;103260.59;;;4.98;100.00
62031;BME280;62035;52.094;5.112;2023-01-28T10:49:40;103264.31;;;5.17;100.00
62031;BME280;62035;52.094;5.112;2023-01-28T10:52:12;103256.34;;;5.42;100.00
62031;BME280;62035;52.094;5.112;2023-01-28T10:54:41;103249.06;;;5.49;100.00
62031;BME280;62035;52.094;5.112;2023-01-28T10:57:10;103242.25;;;5.43;100.00
62031;BME280;62035;52.094;5.112;2023-01-28T10:59:42;103237.28;;;5.34;100.00
62031;BME280;62035;52.094;5.112;2023-01-28T11:02:27;103226.94;;;5.28;100.00
62031;BME280;62035;52.094;5.112;2023-01-28T11:05:03;103217.13;;;5.31;100.00
62031;BME280;62035;52.094;5.112;2023-01-28T11:07:35;103204.44;;;5.64;100.00
62031;BME280;62035;52.094;5.112;2023-01-28T11:12:54;103195.69;;;5.62;100.00
62031;BME280;62035;52.094;5.112;2023-01-28T11:15:22;103195.34;;;5.72;100.00
62031;BME280;62035;52.094;5.112;2023-01-28T11:17:54;103180.25;;;5.75;100.00
62031;BME280;62035;52.094;5.112;2023-01-28T11:20:26;103177.25;;;5.61;100.00
62031;BME280;62035;52.094;5.112;2023-01-28T11:22:57;103147.28;;;5.62;100.00
62031;BME280;62035;52.094;5.112;2023-01-28T11:25:28;103164.63;;;5.69;100.00
62031;BME280;62035;52.094;5.112;2023-01-28T11:27:59;103162.78;;;5.71;100.00
62031;BME280;62035;52.094;5.112;2023-01-28T11:30:33;103158.72;;;5.41;100.00
62031;BME280;62035;52.094;5.112;2023-01-28T11:33:13;103157.00;;;5.61;100.00
62031;BME280;62035;52.094;5.112;2023-01-28T11:35:52;103143.88;;;5.82;100.00
62031;BME280;62035;52.094;5.112;2023-01-28T11:38:24;103138.09;;;5.72;100.00
62031;BME280;62035;52.094;5.112;2023-01-28T11:40:53;103136.88;;;5.59;100.00
62031;BME280;62035;52.094;5.112;2023-01-28T11:43:23;103137.75;;;5.59;100.00
62031;BME280;62035;52.094;5.112;2023-01-28T11:46:00;103133.22;;;6.05;100.00
62031;BME280;62035;52.094;5.112;2023-01-28T11:48:43;103141.81;;;6.10;100.00
62031;BME280;62035;52.094;5.112;2023-01-28T11:51:31;103138.25;;;6.11;100.00
62031;BME280;62035;52.094;5.112;2023-01-28T11:54:23;103148.19;;;6.26;100.00
62031;BME280;62035;52.094;5.112;2023-01-28T11:57:10;103128.09;;;6.22;100.00
62031;BME280;62035;52.094;5.112;2023-01-28T11:59:55;103155.28;;;6.66;100.00
62031;BME280;62035;52.094;5.112;2023-01-28T12:02:46;103161.53;;;6.44;100.00
62031;BME280;62035;52.094;5.112;2023-01-28T12:05:33;103159.63;;;6.27;100.00
62031;BME280;62035;52.094;5.112;2023-01-28T12:08:19;103159.16;;;6.58;100.00
62031;BME280;62035;52.094;5.112;2023-01-28T12:11:04;103157.66;;;6.52;100.00
62031;BME280;62035;52.094;5.112;2023-01-28T12:13:53;103159.13;;;6.39;100.00
62031;BME280;62035;52.094;5.112;2023-01-28T12:16:40;103153.44;;;6.28;100.00
62031;BME280;62035;52.094;5.112;2023-01-28T12:22:35;103170.97;;;6.09;100.00
62031;BME280;62035;52.094;5.112;2023-01-28T12:25:21;103175.47;;;6.07;100.00
62031;BME280;62035;52.094;5.112;2023-01-28T12:28:07;103189.69;;;5.81;100.00
62031;BME280;62035;52.094;5.112;2023-01-28T12:30:50;103185.28;;;6.25;100.00
62031;BME280;62035;52.094;5.112;2023-01-28T12:33:42;103167.50;;;6.28;100.00
62031;BME280;62035;52.094;5.112;2023-01-28T12:36:30;103156.38;;;6.41;100.00
62031;BME280;62035;52.094;5.112;2023-01-28T12:39:16;103157.78;;;6.29;100.00
62031;BME280;62035;52.094;5.112;2023-01-28T12:42:03;103149.19;;;6.24;100.00
62031;BME280;62035;52.094;5.112;2023-01-28T12:44:42;103150.09;;;6.23;100.00
62031;BME280;62035;52.094;5.112;2023-01-28T12:47:35;103124.97;;;6.13;100.00
62031;BME280;62035;52.094;5.112;2023-01-28T12:50:11;103139.88;;;6.35;100.00
62031;BME280;62035;52.094;5.112;2023-01-28T12:52:47;103126.81;;;6.11;100.00
62031;BME280;62035;52.094;5.112;2023-01-28T12:55:24;103120.56;;;6.13;100.00
62031;BME280;62035;52.094;5.112;2023-01-28T12:58:06;103111.59;;;6.38;100.00
62031;BME280;62035;52.094;5.112;2023-01-28T13:00:47;103109.84;;;6.57;100.00
62031;BME280;62035;52.094;5.112;2023-01-28T13:03:24;103098.19;;;6.61;100.00
62031;BME280;62035;52.094;5.112;2023-01-28T13:06:01;103094.28;;;6.88;100.00
62031;BME280;62035;52.094;5.112;2023-01-28T13:08:36;103089.59;;;7.14;100.00
62031;BME280;62035;52.094;5.112;2023-01-28T13:11:05;103088.09;;;7.08;100.00
62031;BME280;62035;52.094;5.112;2023-01-28T13:13:41;103090.06;;;7.41;100.00
62031;BME280;62035;52.094;5.112;2023-01-28T13:16:13;103089.72;;;7.11;100.00
62031;BME280;62035;52.094;5.112;2023-01-28T13:18:43;103088.50;;;6.99;100.00
62031;BME280;62035;52.094;5.112;2023-01-28T13:21:15;103095.66;;;6.97;100.00
62031;BME280;62035;52.094;5.112;2023-01-28T13:24:04;103086.63;;;6.82;100.00
62031;BME280;62035;52.094;5.112;2023-01-28T13:26:45;103084.66;;;7.06;100.00